N733PG KFDK-KLNS
Flight info
| Callsign | N733PG |
|---|---|
| Flight time | 1h 4m |
| Altitude | |
| Route | |
| Aircraft | C172/L-VGD/C |
Departure
| Time | 2026-04-27 01:29 |
|---|---|
| Airport | Frederick Municipal Airport (KFDK) |
Arrival
| Time | 2026-04-27 02:33 |
|---|---|
| Airport | Lancaster Airport (KLNS) |
| Time | Latitude | Longitude | Altitude | Speed | Heading |
|---|---|---|---|---|---|
| 2026-04-27 01:18 | 39.41581 | -77.37939 | 292 ft | 0 kts | 5° |
| 2026-04-27 01:21 | 39.41585 | -77.37917 | 292 ft | 4 kts | 96° |
| 2026-04-27 01:21 | 39.41583 | -77.37871 | 292 ft | 7 kts | 92° |
| 2026-04-27 01:22 | 39.41589 | -77.37774 | 292 ft | 11 kts | 25° |
| 2026-04-27 01:22 | 39.41665 | -77.37767 | 290 ft | 12 kts | 4° |
| 2026-04-27 01:22 | 39.41763 | -77.37756 | 288 ft | 15 kts | 4° |
| 2026-04-27 01:22 | 39.41871 | -77.37745 | 285 ft | 16 kts | 5° |
| 2026-04-27 01:23 | 39.41979 | -77.37734 | 282 ft | 14 kts | 5° |
| 2026-04-27 01:23 | 39.42068 | -77.37723 | 280 ft | 11 kts | 5° |
| 2026-04-27 01:23 | 39.42144 | -77.37713 | 279 ft | 9 kts | 30° |
| 2026-04-27 01:23 | 39.42137 | -77.37642 | 279 ft | 9 kts | 115° |
| 2026-04-27 01:24 | 39.42104 | -77.37550 | 280 ft | 13 kts | 116° |
| 2026-04-27 01:24 | 39.42057 | -77.37426 | 281 ft | 16 kts | 114° |
| 2026-04-27 01:24 | 39.42004 | -77.37287 | 281 ft | 16 kts | 116° |
| 2026-04-27 01:24 | 39.41956 | -77.37157 | 278 ft | 14 kts | 121° |
| 2026-04-27 01:25 | 39.41945 | -77.37133 | 278 ft | 4 kts | 107° |
| 2026-04-27 01:25 | 39.41957 | -77.37106 | 277 ft | 0 kts | 39° |
| 2026-04-27 01:25 | 39.41977 | -77.37084 | 276 ft | 14 kts | 41° |
| 2026-04-27 01:25 | 39.42074 | -77.36995 | 272 ft | 13 kts | 0° |
| 2026-04-27 01:26 | 39.42119 | -77.36968 | 271 ft | 0 kts | 129° |
| 2026-04-27 01:26 | 39.42110 | -77.36948 | 271 ft | 5 kts | 118° |
| 2026-04-27 01:27 | 39.42099 | -77.36927 | 270 ft | 0 kts | 129° |
| 2026-04-27 01:28 | 39.42091 | -77.36912 | 270 ft | 9 kts | 127° |
| 2026-04-27 01:28 | 39.42032 | -77.36859 | 269 ft | 10 kts | 214° |
| 2026-04-27 01:28 | 39.41916 | -77.36991 | 273 ft | 52 kts | 218° |
| 2026-04-27 01:28 | 39.41535 | -77.37409 | 349 ft | 82 kts | 223° |
| 2026-04-27 01:29 | 39.41116 | -77.37863 | 593 ft | 77 kts | 224° |
| 2026-04-27 01:29 | 39.40725 | -77.38351 | 796 ft | 79 kts | 230° |
| 2026-04-27 01:29 | 39.40315 | -77.38824 | 995 ft | 82 kts | 213° |
| 2026-04-27 01:29 | 39.39776 | -77.39057 | 1203 ft | 80 kts | 180° |
| 2026-04-27 01:30 | 39.39279 | -77.38897 | 1408 ft | 70 kts | 129° |
| 2026-04-27 01:30 | 39.39125 | -77.38390 | 1617 ft | 56 kts | 74° |
| 2026-04-27 01:30 | 39.39372 | -77.38020 | 1787 ft | 56 kts | 36° |
| 2026-04-27 01:30 | 39.39675 | -77.37734 | 2003 ft | 52 kts | 39° |
| 2026-04-27 01:31 | 39.39938 | -77.37414 | 2173 ft | 48 kts | 45° |
| 2026-04-27 01:31 | 39.40169 | -77.37086 | 2282 ft | 51 kts | 52° |
| 2026-04-27 01:31 | 39.40395 | -77.36694 | 2463 ft | 53 kts | 50° |
| 2026-04-27 01:31 | 39.40618 | -77.36311 | 2642 ft | 54 kts | 52° |
| 2026-04-27 01:32 | 39.40848 | -77.35908 | 2815 ft | 55 kts | 47° |
| 2026-04-27 01:32 | 39.41122 | -77.35558 | 2990 ft | 54 kts | 45° |
| 2026-04-27 01:32 | 39.41375 | -77.35224 | 3175 ft | 52 kts | 47° |
| 2026-04-27 01:32 | 39.41615 | -77.34872 | 3352 ft | 52 kts | 49° |
| 2026-04-27 01:33 | 39.41824 | -77.34503 | 3529 ft | 51 kts | 52° |
| 2026-04-27 01:33 | 39.41999 | -77.34094 | 3704 ft | 51 kts | 59° |
| 2026-04-27 01:33 | 39.42135 | -77.33658 | 3868 ft | 52 kts | 60° |
| 2026-04-27 01:33 | 39.42293 | -77.33251 | 4036 ft | 52 kts | 55° |
| 2026-04-27 01:34 | 39.42469 | -77.32848 | 4199 ft | 52 kts | 58° |
| 2026-04-27 01:34 | 39.42632 | -77.32409 | 4347 ft | 54 kts | 54° |
| 2026-04-27 01:34 | 39.42884 | -77.32065 | 4498 ft | 54 kts | 46° |
| 2026-04-27 01:34 | 39.43126 | -77.31699 | 4659 ft | 53 kts | 48° |
| 2026-04-27 01:35 | 39.43346 | -77.31310 | 4798 ft | 56 kts | 50° |
| 2026-04-27 01:35 | 39.43582 | -77.30840 | 4847 ft | 67 kts | 53° |
| 2026-04-27 01:35 | 39.43834 | -77.30329 | 4950 ft | 68 kts | 53° |
| 2026-04-27 01:35 | 39.44099 | -77.29829 | 5064 ft | 66 kts | 45° |
| 2026-04-27 01:36 | 39.44432 | -77.29413 | 5164 ft | 66 kts | 40° |
| 2026-04-27 01:36 | 39.44748 | -77.29012 | 5187 ft | 62 kts | 44° |
| 2026-04-27 01:36 | 39.45023 | -77.28602 | 5195 ft | 59 kts | 45° |
| 2026-04-27 01:36 | 39.45293 | -77.28198 | 5199 ft | 59 kts | 45° |
| 2026-04-27 01:37 | 39.45576 | -77.27819 | 5211 ft | 58 kts | 41° |
| 2026-04-27 01:37 | 39.45858 | -77.27452 | 5225 ft | 57 kts | 44° |
| 2026-04-27 01:37 | 39.46137 | -77.27086 | 5236 ft | 58 kts | 42° |
| 2026-04-27 01:37 | 39.46440 | -77.26717 | 5230 ft | 59 kts | 39° |
| 2026-04-27 01:38 | 39.46749 | -77.26358 | 5221 ft | 61 kts | 40° |
| 2026-04-27 01:38 | 39.47073 | -77.26009 | 5220 ft | 60 kts | 37° |
| 2026-04-27 01:38 | 39.47402 | -77.25669 | 5209 ft | 61 kts | 38° |
| 2026-04-27 01:38 | 39.47723 | -77.25309 | 5207 ft | 60 kts | 39° |
| 2026-04-27 01:39 | 39.48047 | -77.24965 | 5210 ft | 61 kts | 38° |
| 2026-04-27 01:39 | 39.48384 | -77.24652 | 5239 ft | 58 kts | 32° |
| 2026-04-27 01:39 | 39.48751 | -77.24330 | 5159 ft | 67 kts | 35° |
| 2026-04-27 01:39 | 39.49146 | -77.23969 | 5093 ft | 71 kts | 38° |
| 2026-04-27 01:40 | 39.49529 | -77.23563 | 5044 ft | 71 kts | 39° |
| 2026-04-27 01:40 | 39.49883 | -77.23154 | 5043 ft | 66 kts | 41° |
| 2026-04-27 01:40 | 39.50214 | -77.22724 | 4983 ft | 67 kts | 45° |
| 2026-04-27 01:40 | 39.50525 | -77.22294 | 4994 ft | 63 kts | 46° |
| 2026-04-27 01:41 | 39.50805 | -77.21870 | 5002 ft | 61 kts | 47° |
| 2026-04-27 01:41 | 39.51055 | -77.21420 | 5007 ft | 60 kts | 52° |
| 2026-04-27 01:41 | 39.51281 | -77.20959 | 5022 ft | 59 kts | 53° |
| 2026-04-27 01:41 | 39.51506 | -77.20522 | 5036 ft | 59 kts | 55° |
| 2026-04-27 01:42 | 39.51694 | -77.20036 | 5035 ft | 61 kts | 59° |
| 2026-04-27 01:42 | 39.51864 | -77.19523 | 5028 ft | 62 kts | 61° |
| 2026-04-27 01:42 | 39.52027 | -77.19005 | 5029 ft | 62 kts | 61° |
| 2026-04-27 01:42 | 39.52219 | -77.18510 | 5030 ft | 61 kts | 52° |
| 2026-04-27 01:43 | 39.52460 | -77.18059 | 5030 ft | 61 kts | 51° |
| 2026-04-27 01:43 | 39.52703 | -77.17610 | 5030 ft | 61 kts | 51° |
| 2026-04-27 01:43 | 39.52948 | -77.17162 | 5030 ft | 60 kts | 51° |
| 2026-04-27 01:43 | 39.53189 | -77.16715 | 5029 ft | 61 kts | 51° |
| 2026-04-27 01:44 | 39.53434 | -77.16265 | 5030 ft | 61 kts | 51° |
| 2026-04-27 01:44 | 39.53679 | -77.15816 | 5029 ft | 60 kts | 50° |
| 2026-04-27 01:44 | 39.53919 | -77.15370 | 5028 ft | 60 kts | 51° |
| 2026-04-27 01:44 | 39.54160 | -77.14922 | 5029 ft | 60 kts | 51° |
| 2026-04-27 01:45 | 39.54406 | -77.14469 | 5029 ft | 61 kts | 51° |
| 2026-04-27 01:45 | 39.54649 | -77.14026 | 5030 ft | 61 kts | 51° |
| 2026-04-27 01:45 | 39.54894 | -77.13577 | 5029 ft | 61 kts | 51° |
| 2026-04-27 01:45 | 39.55139 | -77.13126 | 5029 ft | 60 kts | 51° |
| 2026-04-27 01:46 | 39.55386 | -77.12676 | 5029 ft | 61 kts | 51° |
| 2026-04-27 01:46 | 39.55629 | -77.12229 | 5028 ft | 61 kts | 51° |
| 2026-04-27 01:46 | 39.55877 | -77.11780 | 5029 ft | 61 kts | 51° |
| 2026-04-27 01:46 | 39.56124 | -77.11331 | 5029 ft | 61 kts | 51° |
| 2026-04-27 01:47 | 39.56372 | -77.10878 | 5029 ft | 61 kts | 51° |
| 2026-04-27 01:47 | 39.56617 | -77.10430 | 5032 ft | 60 kts | 50° |
| 2026-04-27 01:47 | 39.56862 | -77.10014 | 5050 ft | 58 kts | 47° |
| 2026-04-27 01:47 | 39.57157 | -77.09637 | 5044 ft | 60 kts | 37° |
| 2026-04-27 01:48 | 39.57492 | -77.09302 | 5040 ft | 60 kts | 37° |
| 2026-04-27 01:48 | 39.57828 | -77.08981 | 5029 ft | 62 kts | 36° |
| 2026-04-27 01:48 | 39.58194 | -77.08662 | 5013 ft | 62 kts | 34° |
| 2026-04-27 01:48 | 39.58548 | -77.08356 | 5014 ft | 61 kts | 34° |
| 2026-04-27 01:49 | 39.58908 | -77.08065 | 5014 ft | 60 kts | 32° |
| 2026-04-27 01:49 | 39.59271 | -77.07794 | 5016 ft | 60 kts | 31° |
| 2026-04-27 01:49 | 39.59660 | -77.07514 | 4913 ft | 66 kts | 32° |
| 2026-04-27 01:49 | 39.60060 | -77.07207 | 4805 ft | 68 kts | 33° |
| 2026-04-27 01:50 | 39.60444 | -77.06868 | 4723 ft | 66 kts | 36° |
| 2026-04-27 01:50 | 39.60817 | -77.06514 | 4626 ft | 67 kts | 39° |
| 2026-04-27 01:50 | 39.61174 | -77.06137 | 4552 ft | 65 kts | 40° |
| 2026-04-27 01:50 | 39.61496 | -77.05758 | 4564 ft | 61 kts | 43° |
| 2026-04-27 01:51 | 39.61810 | -77.05351 | 4531 ft | 67 kts | 45° |
| 2026-04-27 01:51 | 39.62125 | -77.04916 | 4544 ft | 65 kts | 47° |
| 2026-04-27 01:51 | 39.62440 | -77.04469 | 4518 ft | 68 kts | 46° |
| 2026-04-27 01:51 | 39.62773 | -77.04049 | 4524 ft | 66 kts | 44° |
| 2026-04-27 01:52 | 39.63088 | -77.03607 | 4520 ft | 67 kts | 47° |
| 2026-04-27 01:52 | 39.63397 | -77.03162 | 4528 ft | 65 kts | 46° |
| 2026-04-27 01:52 | 39.63705 | -77.02721 | 4521 ft | 66 kts | 46° |
| 2026-04-27 01:52 | 39.64004 | -77.02277 | 4538 ft | 65 kts | 47° |
| 2026-04-27 01:53 | 39.64306 | -77.01833 | 4520 ft | 66 kts | 45° |
| 2026-04-27 01:53 | 39.64624 | -77.01400 | 4515 ft | 67 kts | 46° |
| 2026-04-27 01:53 | 39.64932 | -77.00948 | 4532 ft | 65 kts | 47° |
| 2026-04-27 01:53 | 39.65223 | -77.00489 | 4531 ft | 65 kts | 47° |
| 2026-04-27 01:54 | 39.65523 | -77.00056 | 4543 ft | 65 kts | 46° |
| 2026-04-27 01:54 | 39.65834 | -76.99635 | 4551 ft | 64 kts | 44° |
| 2026-04-27 01:54 | 39.66158 | -76.99220 | 4558 ft | 64 kts | 41° |
| 2026-04-27 01:54 | 39.66515 | -76.98847 | 4543 ft | 66 kts | 37° |
| 2026-04-27 01:55 | 39.66886 | -76.98502 | 4548 ft | 65 kts | 34° |
| 2026-04-27 01:55 | 39.67268 | -76.98179 | 4559 ft | 64 kts | 40° |
| 2026-04-27 01:55 | 39.67562 | -76.97735 | 4559 ft | 66 kts | 47° |
| 2026-04-27 01:55 | 39.67866 | -76.97282 | 4550 ft | 67 kts | 45° |
| 2026-04-27 01:56 | 39.68507 | -76.96415 | 4549 ft | 66 kts | 45° |
| 2026-04-27 01:56 | 39.68811 | -76.95963 | 4548 ft | 66 kts | 47° |
| 2026-04-27 01:56 | 39.69115 | -76.95532 | 4554 ft | 66 kts | 45° |
| 2026-04-27 01:57 | 39.69429 | -76.95084 | 4537 ft | 67 kts | 46° |
| 2026-04-27 01:57 | 39.69759 | -76.94654 | 4521 ft | 68 kts | 36° |
| 2026-04-27 01:57 | 39.70104 | -76.94242 | 4518 ft | 67 kts | 45° |
| 2026-04-27 01:57 | 39.70407 | -76.93792 | 4519 ft | 65 kts | 46° |
| 2026-04-27 01:58 | 39.70669 | -76.93287 | 4506 ft | 68 kts | 56° |
| 2026-04-27 01:58 | 39.70875 | -76.92730 | 4500 ft | 68 kts | 60° |
| 2026-04-27 01:58 | 39.71060 | -76.92165 | 4513 ft | 66 kts | 59° |
| 2026-04-27 01:58 | 39.71275 | -76.91628 | 4507 ft | 67 kts | 58° |
| 2026-04-27 01:59 | 39.71480 | -76.91093 | 4510 ft | 67 kts | 60° |
| 2026-04-27 01:59 | 39.71659 | -76.90542 | 4525 ft | 65 kts | 60° |
| 2026-04-27 01:59 | 39.71831 | -76.89991 | 4522 ft | 67 kts | 63° |
| 2026-04-27 01:59 | 39.72017 | -76.89421 | 4515 ft | 67 kts | 62° |
| 2026-04-27 02:00 | 39.72205 | -76.88886 | 4538 ft | 64 kts | 60° |
| 2026-04-27 02:00 | 39.72424 | -76.88368 | 4539 ft | 64 kts | 45° |
| 2026-04-27 02:00 | 39.72721 | -76.87931 | 4543 ft | 64 kts | 45° |
| 2026-04-27 02:00 | 39.73011 | -76.87497 | 4557 ft | 64 kts | 45° |
| 2026-04-27 02:01 | 39.73301 | -76.87059 | 4564 ft | 64 kts | 46° |
| 2026-04-27 02:01 | 39.73596 | -76.86605 | 4545 ft | 66 kts | 46° |
| 2026-04-27 02:01 | 39.73899 | -76.86153 | 4542 ft | 66 kts | 46° |
| 2026-04-27 02:01 | 39.74194 | -76.85696 | 4539 ft | 66 kts | 46° |
| 2026-04-27 02:02 | 39.74481 | -76.85229 | 4535 ft | 65 kts | 47° |
| 2026-04-27 02:02 | 39.74758 | -76.84759 | 4549 ft | 64 kts | 49° |
| 2026-04-27 02:02 | 39.75018 | -76.84288 | 4553 ft | 64 kts | 51° |
| 2026-04-27 02:02 | 39.75286 | -76.83826 | 4560 ft | 64 kts | 49° |
| 2026-04-27 02:03 | 39.75556 | -76.83360 | 4562 ft | 65 kts | 51° |
| 2026-04-27 02:03 | 39.75825 | -76.82878 | 4565 ft | 65 kts | 52° |
| 2026-04-27 02:03 | 39.76084 | -76.82391 | 4565 ft | 66 kts | 52° |
| 2026-04-27 02:03 | 39.76353 | -76.81905 | 4569 ft | 66 kts | 50° |
| 2026-04-27 02:04 | 39.76631 | -76.81438 | 4567 ft | 66 kts | 49° |
| 2026-04-27 02:04 | 39.76939 | -76.80997 | 4563 ft | 67 kts | 45° |
| 2026-04-27 02:04 | 39.77243 | -76.80526 | 4557 ft | 67 kts | 52° |
| 2026-04-27 02:04 | 39.77513 | -76.80031 | 4542 ft | 68 kts | 52° |
| 2026-04-27 02:05 | 39.77773 | -76.79525 | 4551 ft | 66 kts | 54° |
| 2026-04-27 02:05 | 39.78026 | -76.79005 | 4529 ft | 68 kts | 54° |
| 2026-04-27 02:05 | 39.78294 | -76.78507 | 4539 ft | 66 kts | 51° |
| 2026-04-27 02:05 | 39.78560 | -76.78013 | 4515 ft | 68 kts | 48° |
| 2026-04-27 02:06 | 39.78880 | -76.77577 | 4524 ft | 65 kts | 46° |
| 2026-04-27 02:06 | 39.79173 | -76.77120 | 4529 ft | 65 kts | 52° |
| 2026-04-27 02:06 | 39.79438 | -76.76645 | 4539 ft | 64 kts | 50° |
| 2026-04-27 02:06 | 39.79725 | -76.76197 | 4545 ft | 64 kts | 48° |
| 2026-04-27 02:07 | 39.80054 | -76.75799 | 4555 ft | 64 kts | 39° |
| 2026-04-27 02:07 | 39.80405 | -76.75426 | 4548 ft | 65 kts | 41° |
| 2026-04-27 02:07 | 39.80744 | -76.75044 | 4566 ft | 64 kts | 37° |
| 2026-04-27 02:07 | 39.81110 | -76.74697 | 4570 ft | 64 kts | 44° |
| 2026-04-27 02:08 | 39.81427 | -76.74281 | 4570 ft | 65 kts | 47° |
| 2026-04-27 02:08 | 39.81703 | -76.73827 | 4582 ft | 65 kts | 50° |
| 2026-04-27 02:08 | 39.82001 | -76.73380 | 4573 ft | 66 kts | 45° |
| 2026-04-27 02:08 | 39.82317 | -76.72933 | 4552 ft | 67 kts | 47° |
| 2026-04-27 02:09 | 39.82641 | -76.72492 | 4549 ft | 65 kts | 45° |
| 2026-04-27 02:09 | 39.82954 | -76.72049 | 4525 ft | 67 kts | 49° |
| 2026-04-27 02:09 | 39.83241 | -76.71590 | 4537 ft | 65 kts | 49° |
| 2026-04-27 02:09 | 39.83529 | -76.71121 | 4532 ft | 67 kts | 51° |
| 2026-04-27 02:10 | 39.83778 | -76.70606 | 4531 ft | 68 kts | 61° |
| 2026-04-27 02:10 | 39.83906 | -76.70000 | 4530 ft | 69 kts | 75° |
| 2026-04-27 02:10 | 39.83910 | -76.69361 | 4521 ft | 73 kts | 86° |
| 2026-04-27 02:10 | 39.83815 | -76.68703 | 4519 ft | 74 kts | 94° |
| 2026-04-27 02:11 | 39.83648 | -76.68061 | 4510 ft | 76 kts | 100° |
| 2026-04-27 02:11 | 39.83431 | -76.67427 | 4503 ft | 76 kts | 102° |
| 2026-04-27 02:11 | 39.83407 | -76.66800 | 4503 ft | 68 kts | 67° |
| 2026-04-27 02:11 | 39.83659 | -76.66305 | 4500 ft | 66 kts | 42° |
| 2026-04-27 02:12 | 39.84046 | -76.65977 | 4500 ft | 66 kts | 31° |
| 2026-04-27 02:12 | 39.84461 | -76.65700 | 4497 ft | 66 kts | 31° |
| 2026-04-27 02:12 | 39.84862 | -76.65421 | 4498 ft | 66 kts | 31° |
| 2026-04-27 02:12 | 39.85266 | -76.65126 | 4501 ft | 66 kts | 32° |
| 2026-04-27 02:13 | 39.85659 | -76.64822 | 4516 ft | 64 kts | 33° |
| 2026-04-27 02:13 | 39.86012 | -76.64532 | 4586 ft | 59 kts | 35° |
| 2026-04-27 02:13 | 39.86360 | -76.64230 | 4593 ft | 61 kts | 36° |
| 2026-04-27 02:13 | 39.86720 | -76.63906 | 4589 ft | 64 kts | 37° |
| 2026-04-27 02:14 | 39.87085 | -76.63564 | 4586 ft | 64 kts | 37° |
| 2026-04-27 02:14 | 39.87443 | -76.63219 | 4586 ft | 64 kts | 38° |
| 2026-04-27 02:14 | 39.87798 | -76.62867 | 4590 ft | 64 kts | 39° |
| 2026-04-27 02:14 | 39.88152 | -76.62505 | 4590 ft | 65 kts | 39° |
| 2026-04-27 02:15 | 39.88502 | -76.62136 | 4591 ft | 65 kts | 40° |
| 2026-04-27 02:15 | 39.88853 | -76.61757 | 4592 ft | 65 kts | 40° |
| 2026-04-27 02:15 | 39.89198 | -76.61375 | 4591 ft | 65 kts | 41° |
| 2026-04-27 02:15 | 39.89541 | -76.60987 | 4595 ft | 65 kts | 41° |
| 2026-04-27 02:16 | 39.89886 | -76.60590 | 4595 ft | 66 kts | 42° |
| 2026-04-27 02:16 | 39.90227 | -76.60189 | 4587 ft | 66 kts | 42° |
| 2026-04-27 02:16 | 39.90562 | -76.59790 | 4590 ft | 65 kts | 42° |
| 2026-04-27 02:16 | 39.90895 | -76.59385 | 4593 ft | 65 kts | 43° |
| 2026-04-27 02:17 | 39.91225 | -76.58975 | 4593 ft | 65 kts | 43° |
| 2026-04-27 02:17 | 39.91553 | -76.58562 | 4592 ft | 65 kts | 43° |
| 2026-04-27 02:17 | 39.91881 | -76.58147 | 4596 ft | 66 kts | 44° |
| 2026-04-27 02:17 | 39.92209 | -76.57725 | 4588 ft | 66 kts | 44° |
| 2026-04-27 02:18 | 39.92531 | -76.57304 | 4594 ft | 65 kts | 45° |
| 2026-04-27 02:18 | 39.92855 | -76.56875 | 4593 ft | 66 kts | 45° |
| 2026-04-27 02:18 | 39.93176 | -76.56447 | 4589 ft | 66 kts | 45° |
| 2026-04-27 02:18 | 39.93498 | -76.56015 | 4587 ft | 66 kts | 45° |
| 2026-04-27 02:19 | 39.93815 | -76.55585 | 4593 ft | 66 kts | 45° |
| 2026-04-27 02:19 | 39.94135 | -76.55151 | 4590 ft | 66 kts | 45° |
| 2026-04-27 02:19 | 39.94453 | -76.54717 | 4589 ft | 66 kts | 46° |
| 2026-04-27 02:19 | 39.94767 | -76.54283 | 4587 ft | 65 kts | 45° |
| 2026-04-27 02:20 | 39.95077 | -76.53853 | 4587 ft | 64 kts | 46° |
| 2026-04-27 02:20 | 39.95383 | -76.53428 | 4591 ft | 64 kts | 46° |
| 2026-04-27 02:20 | 39.95689 | -76.52998 | 4593 ft | 65 kts | 46° |
| 2026-04-27 02:20 | 39.95999 | -76.52561 | 4593 ft | 65 kts | 46° |
| 2026-04-27 02:21 | 39.96305 | -76.52129 | 4593 ft | 65 kts | 46° |
| 2026-04-27 02:21 | 39.96617 | -76.51686 | 4592 ft | 66 kts | 46° |
| 2026-04-27 02:21 | 39.96928 | -76.51245 | 4592 ft | 66 kts | 46° |
| 2026-04-27 02:21 | 39.97234 | -76.50806 | 4592 ft | 66 kts | 46° |
| 2026-04-27 02:22 | 39.97541 | -76.50366 | 4593 ft | 65 kts | 46° |
| 2026-04-27 02:22 | 39.97848 | -76.49925 | 4592 ft | 65 kts | 46° |
| 2026-04-27 02:22 | 39.98155 | -76.49483 | 4592 ft | 65 kts | 46° |
| 2026-04-27 02:22 | 39.98457 | -76.49049 | 4592 ft | 65 kts | 47° |
| 2026-04-27 02:23 | 39.98760 | -76.48607 | 4593 ft | 65 kts | 47° |
| 2026-04-27 02:23 | 39.99063 | -76.48166 | 4593 ft | 65 kts | 47° |
| 2026-04-27 02:23 | 39.99366 | -76.47726 | 4593 ft | 65 kts | 47° |
| 2026-04-27 02:23 | 39.99670 | -76.47283 | 4591 ft | 65 kts | 46° |
| 2026-04-27 02:24 | 39.99972 | -76.46843 | 4591 ft | 65 kts | 47° |
| 2026-04-27 02:24 | 40.00277 | -76.46398 | 4592 ft | 65 kts | 47° |
| 2026-04-27 02:24 | 40.00582 | -76.45950 | 4592 ft | 65 kts | 47° |
| 2026-04-27 02:24 | 40.00887 | -76.45502 | 4591 ft | 66 kts | 46° |
| 2026-04-27 02:25 | 40.01189 | -76.45061 | 4592 ft | 65 kts | 46° |
| 2026-04-27 02:25 | 40.01495 | -76.44611 | 4592 ft | 65 kts | 47° |
| 2026-04-27 02:25 | 40.01794 | -76.44169 | 4592 ft | 65 kts | 47° |
| 2026-04-27 02:25 | 40.02094 | -76.43727 | 4592 ft | 65 kts | 45° |
| 2026-04-27 02:26 | 40.02406 | -76.43295 | 4593 ft | 65 kts | 45° |
| 2026-04-27 02:26 | 40.02718 | -76.42853 | 4592 ft | 65 kts | 46° |
| 2026-04-27 02:26 | 40.03037 | -76.42439 | 4582 ft | 66 kts | 39° |
| 2026-04-27 02:26 | 40.03375 | -76.42017 | 4511 ft | 67 kts | 45° |
| 2026-04-27 02:27 | 40.03679 | -76.41571 | 4373 ft | 65 kts | 48° |
| 2026-04-27 02:27 | 40.03976 | -76.41120 | 4231 ft | 65 kts | 48° |
| 2026-04-27 02:27 | 40.04266 | -76.40680 | 4096 ft | 64 kts | 49° |
| 2026-04-27 02:27 | 40.04550 | -76.40243 | 3959 ft | 63 kts | 49° |
| 2026-04-27 02:28 | 40.04845 | -76.39825 | 3819 ft | 63 kts | 37° |
| 2026-04-27 02:28 | 40.05274 | -76.39657 | 3682 ft | 65 kts | 17° |
| 2026-04-27 02:28 | 40.05726 | -76.39566 | 3546 ft | 66 kts | 15° |
| 2026-04-27 02:28 | 40.06179 | -76.39483 | 3414 ft | 66 kts | 15° |
| 2026-04-27 02:29 | 40.06635 | -76.39397 | 3277 ft | 67 kts | 15° |
| 2026-04-27 02:29 | 40.07098 | -76.39311 | 3140 ft | 67 kts | 15° |
| 2026-04-27 02:29 | 40.07565 | -76.39220 | 3009 ft | 68 kts | 16° |
| 2026-04-27 02:29 | 40.08052 | -76.39115 | 2809 ft | 77 kts | 16° |
| 2026-04-27 02:30 | 40.08606 | -76.38984 | 2565 ft | 83 kts | 16° |
| 2026-04-27 02:30 | 40.09174 | -76.38833 | 2344 ft | 81 kts | 22° |
| 2026-04-27 02:30 | 40.09520 | -76.38391 | 2238 ft | 73 kts | 66° |
| 2026-04-27 02:30 | 40.09725 | -76.37759 | 2005 ft | 83 kts | 66° |
| 2026-04-27 02:31 | 40.09930 | -76.37032 | 1838 ft | 85 kts | 67° |
| 2026-04-27 02:31 | 40.10163 | -76.36287 | 1687 ft | 90 kts | 69° |
| 2026-04-27 02:31 | 40.10403 | -76.35521 | 1567 ft | 91 kts | 66° |
| 2026-04-27 02:31 | 40.10628 | -76.34795 | 1407 ft | 83 kts | 68° |
| 2026-04-27 02:32 | 40.10849 | -76.34097 | 1206 ft | 83 kts | 67° |
| 2026-04-27 02:32 | 40.11073 | -76.33388 | 988 ft | 85 kts | 68° |
| 2026-04-27 02:32 | 40.11288 | -76.32681 | 828 ft | 81 kts | 68° |
| 2026-04-27 02:32 | 40.11497 | -76.32008 | 725 ft | 80 kts | 66° |
| 2026-04-27 02:33 | 40.11711 | -76.31334 | 609 ft | 80 kts | 68° |
| 2026-04-27 02:33 | 40.11917 | -76.30663 | 472 ft | 78 kts | 68° |
| 2026-04-27 02:33 | 40.12114 | -76.30026 | 395 ft | 69 kts | 67° |
| 2026-04-27 02:33 | 40.12270 | -76.29525 | 389 ft | 48 kts | 68° |
| 2026-04-27 02:34 | 40.12370 | -76.29203 | 385 ft | 12 kts | 63° |
| 2026-04-27 02:34 | 40.12436 | -76.28996 | 379 ft | 38 kts | 69° |
| 2026-04-27 02:34 | 40.12530 | -76.28706 | 373 ft | 20 kts | 70° |
| 2026-04-27 02:34 | 40.12481 | -76.28587 | 370 ft | 15 kts | 145° |
| 2026-04-27 02:35 | 40.12470 | -76.28579 | 370 ft | 0 kts | 159° |
| 2026-04-27 02:35 | 40.12459 | -76.28579 | 370 ft | 9 kts | 199° |
| 2026-04-27 02:35 | 40.12425 | -76.28697 | 371 ft | 18 kts | 258° |
| 2026-04-27 02:35 | 40.12377 | -76.28863 | 376 ft | 21 kts | 248° |
| 2026-04-27 02:36 | 40.12315 | -76.29065 | 381 ft | 25 kts | 248° |
| 2026-04-27 02:36 | 40.12247 | -76.29283 | 386 ft | 26 kts | 247° |
| 2026-04-27 02:36 | 40.12169 | -76.29499 | 389 ft | 23 kts | 244° |
| 2026-04-27 02:36 | 40.12112 | -76.29652 | 389 ft | 6 kts | 248° |
| 2026-04-27 02:37 | 40.12106 | -76.29667 | 389 ft | 0 kts | 243° |
| 2026-04-27 02:37 | 40.12092 | -76.29703 | 388 ft | 13 kts | 243° |
| 2026-04-27 02:37 | 40.12032 | -76.29865 | 385 ft | 20 kts | 244° |
| 2026-04-27 02:37 | 40.11967 | -76.30008 | 382 ft | 15 kts | 196° |
| 2026-04-27 02:38 | 40.11947 | -76.30007 | 382 ft | 0 kts | 148° |